Hollister, MO

10:28 AM CDT on August 27, 2016 (GMT -0500)
Branson | | Change Station

Elev 1302 ft 36.53 °N, 93.20 °W | Updated 38 minutes ago

Scattered Clouds
Scattered Clouds
77 °F
Feels Like 77 °F
N
0
Wind Variable Wind from North

Today
High -- | Low -- °F
--% Chance of Precip.
Yesterday
High -- | Low -- °F
Precip. -- in
Pressure 30.12 in
Visibility 10.0 miles
Clouds Scattered Clouds 15000 ft
Dew Point 72 °F
Humidity 83%
Rainfall 0.00 in
Snow Depth Not available.
6:40 AM 7:47 PM
Waning Crescent, 23% visible
METAR KBBG 271450Z 00000KT 10SM SCT150 25/22 A3012
Pressure 30.12 in
Visibility 10.0 miles
Clouds Scattered Clouds 15000 ft
Dew Point 72 °F
Humidity 83%
Rainfall 0.00 in
Snow Depth Not available.
6:40 AM 7:47 PM
Waning Crescent, 23% visible
METAR KBBG 271450Z 00000KT 10SM SCT150 25/22 A3012

10-Day Weather Forecast

Almanac

Astronomy

Aug. 27, 2016 Rise Set
Actual Time
Civil Twilight
Nautical Twilight
Astronomical Twilight
Moon
Length of Visible Light
Length of Day
Tomorrow will be .
, % of the Moon is Illuminated

Today's Extremes

State Highs State Lows

Community

WunderPhotos

Upload Photos

1,935,356 photos uploaded!

WunderBlog® & News

Nearby

Air Quality

  Air Quality AQ Index Pollutant
Not available.

Snow Depth

Station Depth Elevation

Earthquake Activity

City Distance Mag. Time & Date
Minimum magnitude displayed is 2.5.

Coastal Water Temperatures

Place Temperature

Stations

Nearby Weather Stations

Station Location Temp. Windchill Dew Point Humidity Wind Precip. Elev Updated Type
                   

Watches & Warnings

There are currently no watches in effect.